Time;durP1;ratioP1;P1;durP2;ratioP2;P2;SDS_P1;SDS_P2;PMS_P1;PMS_P2;Temp;Humidity;BMP_temperature;BMP_pressure;BME280_temperature;BME280_humidity;BME280_pressure;Samples;Min_cycle;Max_cycle;Signal;HPM_P1;HPM_P2
2021/08/03 00:00:25;;;;;;;0.40;0.40;;;;;;;30.20;24.93;98092.09;5068357;28;20024;-87
2021/08/03 00:02:55;;;;;;;0.60;0.40;;;;;;;30.41;24.33;98098.84;5069143;28;20437;-87
2021/08/03 00:05:24;;;;;;;0.30;0.30;;;;;;;30.32;24.23;98096.00;5071371;28;20024;-87
2021/08/03 00:07:56;;;;;;;0.55;0.40;;;;;;;30.17;24.25;98098.72;5060833;28;20039;-87
2021/08/03 00:10:23;;;;;;;0.52;0.50;;;;;;;30.41;24.26;98102.44;5071033;28;20035;-87
2021/08/03 00:12:54;;;;;;;0.30;0.30;;;;;;;30.48;24.09;98099.28;5068497;28;20531;-86
2021/08/03 00:15:22;;;;;;;0.40;0.40;;;;;;;30.52;23.86;98097.06;5071697;28;20107;-87
2021/08/03 00:17:54;;;;;;;0.30;0.30;;;;;;;30.57;24.15;98089.97;5070917;28;20036;-87
2021/08/03 00:20:21;;;;;;;0.50;0.45;;;;;;;30.57;24.26;98085.06;5071254;28;20040;-87
2021/08/03 00:22:48;;;;;;;0.50;0.40;;;;;;;30.57;24.12;98089.97;5070078;28;20125;-87
2021/08/03 00:25:15;;;;;;;3.72;0.30;;;;;;;30.41;24.79;98085.44;5070729;28;20086;-87
2021/08/03 00:27:42;;;;;;;0.50;0.45;;;;;;;30.19;24.79;98089.75;5070316;28;20032;-87
2021/08/03 00:30:09;;;;;;;0.50;0.40;;;;;;;30.30;24.77;98101.34;5069744;28;20058;-87
2021/08/03 00:32:36;;;;;;;0.50;0.50;;;;;;;30.44;24.94;98101.50;5067874;28;20039;-87
2021/08/03 00:35:03;;;;;;;1.85;0.70;;;;;;;30.20;25.60;98100.56;5072014;28;20446;-87
2021/08/03 00:37:29;;;;;;;0.43;0.40;;;;;;;30.01;25.40;98101.91;5067901;28;20021;-87
2021/08/03 00:39:55;;;;;;;1.20;0.57;;;;;;;30.13;25.12;98089.59;5066274;28;20059;-87
2021/08/03 00:42:21;;;;;;;0.50;0.50;;;;;;;30.16;25.16;98091.47;5070827;28;20032;-87
2021/08/03 00:44:50;;;;;;;0.73;0.32;;;;;;;30.27;24.84;98088.91;5071667;28;20036;-86
2021/08/03 00:47:18;;;;;;;0.50;0.30;;;;;;;30.28;25.17;98092.53;5067793;28;20044;-87
2021/08/03 00:49:45;;;;;;;0.45;0.45;;;;;;;30.12;24.97;98092.91;5068616;28;20037;-86
2021/08/03 00:52:12;;;;;;;0.50;0.40;;;;;;;30.19;25.18;98089.75;5070563;28;20032;-87
2021/08/03 00:54:39;;;;;;;0.57;0.50;;;;;;;29.99;25.57;98087.44;5068060;28;20056;-87
2021/08/03 00:57:07;;;;;;;0.43;0.43;;;;;;;29.93;25.01;98092.13;5068425;28;20040;-86
2021/08/03 00:59:34;;;;;;;0.40;0.40;;;;;;;30.12;24.67;98092.91;5069962;28;20033;-86
2021/08/03 01:02:05;;;;;;;0.40;0.40;;;;;;;30.32;24.46;98093.16;5071208;28;20480;-86
2021/08/03 01:04:32;;;;;;;0.45;0.40;;;;;;;30.46;24.29;98093.31;5065123;28;20041;-86
2021/08/03 01:07:28;;;;;;;0.57;0.50;;;;;;;30.49;23.58;98094.41;5071873;28;20484;-87
2021/08/03 01:10:12;;;;;;;0.45;0.45;;;;;;;30.37;23.53;98090.50;5069727;28;20039;-87
2021/08/03 01:13:00;;;;;;;0.40;0.40;;;;;;;30.50;23.48;98082.56;5070146;28;20035;-87
2021/08/03 01:15:51;;;;;;;0.60;0.60;;;;;;;30.48;23.97;98078.69;5069482;28;20040;-87
2021/08/03 01:18:55;;;;;;;0.40;0.40;;;;;;;29.93;24.27;98084.44;5072050;28;20033;-87
2021/08/03 01:21:46;;;;;;;0.65;0.65;;;;;;;28.98;26.30;98076.47;5069111;28;20036;-87
2021/08/03 01:24:53;;;;;;;0.40;0.40;;;;;;;29.02;26.54;98077.09;5069963;28;20438;-87
2021/08/03 01:27:28;;;;;;;0.47;0.40;;;;;;;29.54;25.58;98074.06;5074694;28;20028;-87
2021/08/03 01:29:57;;;;;;;1.30;0.60;;;;;;;29.89;25.34;98080.19;5075239;28;20387;-87
2021/08/03 01:32:39;;;;;;;0.50;0.50;;;;;;;30.00;25.13;98074.81;5074391;28;20125;-87
2021/08/03 01:35:06;;;;;;;1.48;0.60;;;;;;;29.59;25.99;98075.47;5073842;28;20480;-88
2021/08/03 01:37:34;;;;;;;3.35;0.50;;;;;;;29.34;25.93;98074.50;5072832;28;20033;-87
2021/08/03 01:40:08;;;;;;;2.30;0.55;;;;;;;29.28;26.03;98073.56;5071912;28;20039;-86
2021/08/03 01:42:44;;;;;;;0.55;0.55;;;;;;;29.55;25.66;98077.66;5072448;28;20040;-87
2021/08/03 01:45:12;;;;;;;0.40;0.40;;;;;;;29.92;25.02;98079.25;5069700;28;20024;-87
2021/08/03 01:47:39;;;;;;;1.27;0.50;;;;;;;30.22;25.04;98083.91;5073927;28;20047;-87
2021/08/03 01:50:08;;;;;;;0.68;0.50;;;;;;;30.27;24.69;98076.81;5074771;28;20127;-87
2021/08/03 01:52:36;;;;;;;1.27;0.70;;;;;;;30.07;25.39;98088.66;5072193;28;20036;-86
2021/08/03 01:55:03;;;;;;;2.42;0.40;;;;;;;29.81;25.41;98082.56;5074075;28;20480;-86
2021/08/03 01:57:31;;;;;;;0.57;0.55;;;;;;;29.85;25.37;98080.34;5060169;28;20035;-86
2021/08/03 01:59:58;;;;;;;1.08;0.55;;;;;;;29.82;25.54;98081.31;5074427;28;20100;-86
2021/08/03 02:02:24;;;;;;;0.68;0.40;;;;;;;29.92;25.36;98085.69;5074908;28;20078;-87
2021/08/03 02:04:51;;;;;;;0.40;0.40;;;;;;;30.04;25.05;98079.06;5072886;28;20091;-87
2021/08/03 02:07:20;;;;;;;0.85;0.40;;;;;;;30.14;24.86;98088.34;5058993;28;20032;-87
2021/08/03 02:09:47;;;;;;;0.50;0.50;;;;;;;30.32;24.74;98091.13;5065486;28;20033;-87
2021/08/03 02:12:14;;;;;;;0.47;0.40;;;;;;;30.38;24.63;98097.75;5072361;28;20044;-87
2021/08/03 02:14:45;;;;;;;0.77;0.40;;;;;;;30.40;24.34;98089.56;5069416;28;20050;-88
2021/08/03 02:17:29;;;;;;;0.55;0.40;;;;;;;30.36;23.83;98094.63;5073601;28;20040;-87
2021/08/03 02:19:56;;;;;;;1.90;0.38;;;;;;;30.45;23.90;98091.75;5072887;28;20518;-87
2021/08/03 02:22:22;;;;;;;0.43;0.43;;;;;;;30.47;23.62;98092.06;5064047;28;20045;-88
2021/08/03 02:24:48;;;;;;;1.52;0.40;;;;;;;29.91;24.07;98089.78;5073206;28;20040;-87
2021/08/03 02:27:15;;;;;;;0.32;0.32;;;;;;;29.90;24.79;98093.09;5072769;28;20127;-88
2021/08/03 02:29:44;;;;;;;0.30;0.30;;;;;;;30.15;23.83;98095.59;5074097;28;20033;-88
2021/08/03 02:32:24;;;;;;;0.68;0.32;;;;;;;30.34;23.88;98097.13;5068417;28;20038;-87
2021/08/03 02:35:04;;;;;;;0.50;0.40;;;;;;;30.32;23.88;98093.94;5072403;28;20115;-87
2021/08/03 02:37:36;;;;;;;0.50;0.50;;;;;;;30.22;23.76;98098.09;5072841;28;20500;-87
2021/08/03 02:40:05;;;;;;;0.40;0.40;;;;;;;30.25;23.88;98097.13;5072014;28;20024;-87
2021/08/03 02:42:32;;;;;;;0.30;0.30;;;;;;;30.13;24.06;98095.25;5074182;28;20029;-88
2021/08/03 02:45:02;;;;;;;0.98;0.50;;;;;;;30.18;24.13;98093.84;5071527;28;20041;-87
2021/08/03 02:47:36;;;;;;;0.40;0.40;;;;;;;30.25;23.95;98105.59;5071951;28;20119;-88
2021/08/03 02:50:07;;;;;;;1.40;0.35;;;;;;;30.35;23.54;98110.03;5059811;28;20120;-87
2021/08/03 02:52:41;;;;;;;0.57;0.30;;;;;;;29.99;23.69;98099.53;5068125;28;20029;-87
2021/08/03 02:55:25;;;;;;;0.30;0.30;;;;;;;29.92;23.80;98102.69;5069474;28;20150;-88
2021/08/03 02:58:07;;;;;;;0.20;0.20;;;;;;;29.89;24.13;98103.66;5066273;28;20025;-87
2021/08/03 03:00:36;;;;;;;0.22;0.22;;;;;;;29.86;24.41;98101.75;5069693;28;20033;-88
2021/08/03 03:03:14;;;;;;;0.68;0.47;;;;;;;29.82;24.23;98100.34;5071722;28;20044;-87
2021/08/03 03:05:43;;;;;;;0.30;0.30;;;;;;;29.92;24.19;98099.84;5068899;28;20021;-87
2021/08/03 03:08:15;;;;;;;1.02;0.35;;;;;;;30.04;24.00;98100.94;5070834;28;20138;-87
2021/08/03 03:10:52;;;;;;;0.30;0.30;;;;;;;30.09;24.34;98105.97;5073007;28;20036;-87
2021/08/03 03:13:26;;;;;;;0.30;0.30;;;;;;;29.96;24.41;98111.03;5071445;28;20107;-87
2021/08/03 03:15:53;;;;;;;0.43;0.22;;;;;;;30.01;24.33;98111.16;5068319;28;20037;-87
2021/08/03 03:18:21;;;;;;;0.40;0.40;;;;;;;29.96;24.50;98114.66;5080747;28;20036;-87
2021/08/03 03:20:47;;;;;;;0.20;0.20;;;;;;;30.05;24.20;98117.47;5071226;28;20024;-87
2021/08/03 03:23:18;;;;;;;0.40;0.40;;;;;;;30.24;23.75;98120.25;5071496;28;20115;-88
2021/08/03 03:25:46;;;;;;;0.20;0.20;;;;;;;30.41;23.63;98122.28;5072190;28;20107;-87
2021/08/03 03:28:14;;;;;;;1.20;0.38;;;;;;;30.55;23.31;98124.44;5067487;28;20037;-88
2021/08/03 03:30:40;;;;;;;1.80;0.40;;;;;;;30.46;23.05;98124.47;5070150;28;20507;-88
2021/08/03 03:33:08;;;;;;;0.30;0.30;;;;;;;30.03;23.87;98136.19;5071644;28;20039;-87
2021/08/03 03:35:35;;;;;;;0.28;0.28;;;;;;;29.82;24.09;98126.59;5070226;28;20037;-87
2021/08/03 03:38:01;;;;;;;0.63;0.47;;;;;;;29.62;24.09;98134.72;5065915;28;20032;-87
2021/08/03 03:40:28;;;;;;;0.35;0.32;;;;;;;29.92;23.71;98133.81;5070111;28;20036;-87
2021/08/03 03:42:57;;;;;;;0.40;0.40;;;;;;;30.16;23.67;98142.44;5071783;28;20052;-87
2021/08/03 03:45:24;;;;;;;0.30;0.30;;;;;;;30.23;23.85;98144.97;5070019;28;20040;-87
2021/08/03 03:48:06;;;;;;;1.10;0.30;;;;;;;30.00;23.91;98139.97;5069500;28;20106;-87
2021/08/03 03:50:43;;;;;;;0.40;0.40;;;;;;;29.96;24.17;98142.97;5066744;28;20033;-87
2021/08/03 03:53:12;;;;;;;0.30;0.30;;;;;;;30.27;23.72;98139.16;5072366;28;20483;-87
2021/08/03 03:55:42;;;;;;;0.20;0.20;;;;;;;30.58;23.56;98139.72;5072544;28;20029;-87
2021/08/03 03:58:08;;;;;;;0.40;0.40;;;;;;;30.86;23.48;98146.06;5071334;28;20029;-87
2021/08/03 04:00:37;;;;;;;0.30;0.30;;;;;;;30.80;23.99;98148.78;5069921;28;20492;-87
2021/08/03 04:03:05;;;;;;;0.35;0.35;;;;;;;30.65;24.50;98148.66;5071467;28;20533;-88
2021/08/03 04:05:34;;;;;;;0.85;0.85;;;;;;;30.90;24.51;98158.81;5066422;28;20040;-87
2021/08/03 04:08:01;;;;;;;0.95;0.52;;;;;;;31.30;24.26;98144.28;5053701;28;20037;-87
2021/08/03 04:10:33;;;;;;;0.40;0.40;;;;;;;31.55;24.85;98151.59;5070754;28;20442;-88
2021/08/03 04:13:00;;;;;;;0.45;0.45;;;;;;;31.59;25.00;98152.97;5076757;28;20440;-88
2021/08/03 04:15:27;;;;;;;0.40;0.40;;;;;;;31.95;24.38;98154.75;5061873;28;20064;-88
2021/08/03 04:17:54;;;;;;;0.43;0.40;;;;;;;32.36;24.98;98167.16;5067258;28;20029;-88
2021/08/03 04:20:20;;;;;;;0.40;0.30;;;;;;;32.94;24.14;98158.66;5072442;28;20025;-88
2021/08/03 04:22:46;;;;;;;0.70;0.50;;;;;;;33.09;24.15;98159.44;5069441;28;20403;-88
2021/08/03 04:25:12;;;;;;;1.00;0.45;;;;;;;33.06;23.99;98168.16;5068605;28;20074;-88
2021/08/03 04:27:38;;;;;;;0.63;0.47;;;;;;;32.35;25.01;98157.84;5069240;28;20086;-88
2021/08/03 04:30:08;;;;;;;0.50;0.50;;;;;;;32.22;24.80;98156.56;5071883;28;20479;-88
2021/08/03 04:32:34;;;;;;;0.50;0.50;;;;;;;31.96;25.91;98157.13;5068848;28;20064;-87
2021/08/03 04:35:01;;;;;;;1.33;0.60;;;;;;;31.71;25.90;98157.63;5063315;28;20285;-88
2021/08/03 04:37:27;;;;;;;0.95;0.57;;;;;;;31.55;27.66;98155.22;5061981;28;20063;-88
2021/08/03 04:39:53;;;;;;;1.35;0.50;;;;;;;32.00;26.27;98154.88;5067272;28;20071;-88
2021/08/03 04:42:19;;;;;;;1.55;0.55;;;;;;;32.40;25.92;98150.69;5066389;28;20037;-88
2021/08/03 04:44:45;;;;;;;1.10;0.40;;;;;;;32.73;25.71;98148.47;5072775;28;20051;-87
2021/08/03 04:47:11;;;;;;;0.45;0.40;;;;;;;32.77;25.74;98153.97;5067294;28;20459;-91
2021/08/03 04:49:37;;;;;;;0.82;0.43;;;;;;;32.65;26.27;98162.28;5075402;28;20035;-88
2021/08/03 04:52:04;;;;;;;0.57;0.57;;;;;;;32.90;25.75;98157.28;5074949;28;20058;-88
2021/08/03 04:54:31;;;;;;;0.40;0.40;;;;;;;33.14;25.43;98155.09;5070633;28;20107;-89
2021/08/03 04:56:57;;;;;;;1.95;0.70;;;;;;;33.13;26.01;98151.47;5066793;28;20041;-89
2021/08/03 04:59:23;;;;;;;0.60;0.60;;;;;;;32.96;25.64;98158.13;5064040;28;20086;-89
2021/08/03 05:01:49;;;;;;;1.10;0.55;;;;;;;32.59;26.27;98154.94;5068030;28;20029;-89
2021/08/03 05:04:15;;;;;;;0.60;0.60;;;;;;;32.69;26.21;98154.38;5059884;28;20365;-91
2021/08/03 05:06:41;;;;;;;0.55;0.40;;;;;;;33.25;26.31;98158.91;5061998;28;20029;-91
2021/08/03 05:09:07;;;;;;;0.50;0.50;;;;;;;33.67;24.66;98157.69;5063735;28;20366;-90
2021/08/03 05:11:33;;;;;;;0.35;0.35;;;;;;;33.76;24.99;98157.53;5069692;28;20480;-93
2021/08/03 05:13:59;;;;;;;0.63;0.60;;;;;;;33.40;25.60;98159.63;5068028;28;20068;-92
2021/08/03 05:16:26;;;;;;;1.20;0.60;;;;;;;32.94;26.35;98166.38;5074124;28;20033;-88
2021/08/03 05:18:52;;;;;;;0.60;0.55;;;;;;;32.96;25.55;98163.81;5069344;28;20035;-90
2021/08/03 05:21:18;;;;;;;0.60;0.60;;;;;;;32.73;26.78;98171.22;5072271;28;20108;-90
2021/08/03 05:23:44;;;;;;;1.23;0.50;;;;;;;33.43;26.48;98166.38;5070025;28;20032;-90
2021/08/03 05:26:10;;;;;;;0.25;0.25;;;;;;;33.77;25.56;98174.13;5070257;28;20480;-90
2021/08/03 05:28:36;;;;;;;0.50;0.50;;;;;;;33.70;25.82;98170.94;5064668;28;20028;-92
2021/08/03 05:31:02;;;;;;;0.40;0.40;;;;;;;33.42;27.18;98167.69;5065287;28;20082;-89
2021/08/03 05:33:28;;;;;;;0.50;0.50;;;;;;;32.43;28.09;98172.47;5066986;28;20107;-85
2021/08/03 05:35:54;;;;;;;0.40;0.40;;;;;;;32.83;27.60;98169.84;5065237;28;20047;-88
2021/08/03 05:38:20;;;;;;;2.65;0.57;;;;;;;32.58;27.96;98168.38;5069750;28;20103;-88
2021/08/03 05:40:46;;;;;;;0.40;0.40;;;;;;;33.04;27.20;98171.50;5069690;28;20468;-87
2021/08/03 05:43:13;;;;;;;0.47;0.40;;;;;;;32.54;27.92;98172.69;5072188;28;20555;-88
2021/08/03 05:45:39;;;;;;;0.43;0.40;;;;;;;33.27;27.25;98162.03;5070687;28;20041;-88
2021/08/03 05:48:05;;;;;;;0.50;0.43;;;;;;;33.57;26.48;98167.63;5071384;28;20040;-88
2021/08/03 05:50:31;;;;;;;0.47;0.40;;;;;;;33.24;27.71;98165.88;5071852;28;20036;-88
2021/08/03 05:52:57;;;;;;;0.55;0.30;;;;;;;33.59;26.73;98165.06;5071084;28;20039;-88
2021/08/03 05:55:23;;;;;;;0.57;0.43;;;;;;;33.86;26.24;98173.22;5072035;28;20054;-89
2021/08/03 05:57:49;;;;;;;0.57;0.57;;;;;;;33.58;26.28;98167.16;5071353;28;20143;-88
2021/08/03 06:00:16;;;;;;;0.45;0.45;;;;;;;33.69;26.45;98167.31;5069988;28;20484;-88
2021/08/03 06:02:42;;;;;;;0.30;0.30;;;;;;;33.65;26.94;98165.94;5071834;28;20033;-88
2021/08/03 06:05:08;;;;;;;0.68;0.40;;;;;;;34.13;26.25;98174.84;5070611;28;20495;-89
2021/08/03 06:07:41;;;;;;;0.45;0.30;;;;;;;34.95;25.58;98176.97;5069420;28;20025;-88
2021/08/03 06:10:15;;;;;;;0.47;0.47;;;;;;;34.74;25.77;98171.38;5074075;28;20072;-88
2021/08/03 06:12:46;;;;;;;0.40;0.40;;;;;;;34.25;27.21;98183.03;5073783;28;20033;-88
2021/08/03 06:15:13;;;;;;;0.47;0.47;;;;;;;33.71;28.10;98176.13;5074261;28;20041;-89
2021/08/03 06:17:47;;;;;;;2.80;0.50;;;;;;;33.50;27.96;98174.50;5071389;28;20050;-89
2021/08/03 06:20:14;;;;;;;0.57;0.57;;;;;;;32.51;28.74;98168.75;5075358;28;20066;-89
2021/08/03 06:22:40;;;;;;;0.55;0.55;;;;;;;32.90;28.16;98180.81;5073621;28;20036;-89
2021/08/03 06:25:14;;;;;;;0.45;0.45;;;;;;;33.57;27.85;98174.13;5075260;28;20033;-88
2021/08/03 06:27:41;;;;;;;0.68;0.50;;;;;;;34.31;26.76;98169.59;5074740;28;20068;-89
2021/08/03 06:30:08;;;;;;;0.47;0.40;;;;;;;35.08;26.30;98175.28;5074140;28;20112;-88
2021/08/03 06:32:34;;;;;;;0.73;0.52;;;;;;;35.88;23.14;98173.97;5074605;28;20040;-89
2021/08/03 06:35:01;;;;;;;0.47;0.30;;;;;;;35.51;24.58;98176.13;5071645;28;20044;-89
2021/08/03 06:37:27;;;;;;;0.20;0.20;;;;;;;35.89;24.16;98175.53;5071071;28;20028;-88
2021/08/03 06:39:53;;;;;;;0.50;0.25;;;;;;;36.40;23.25;98174.44;5065678;28;20111;-88
2021/08/03 06:42:46;;;;;;;1.75;0.40;;;;;;;36.51;21.79;98168.75;5073364;28;20083;-90
2021/08/03 06:45:27;;;;;;;0.40;0.40;;;;;;;36.58;21.93;98168.25;5067556;28;20434;-88
2021/08/03 06:47:56;;;;;;;0.30;0.30;;;;;;;36.32;21.81;98176.22;5066603;28;20032;-89
2021/08/03 06:50:28;;;;;;;0.32;0.20;;;;;;;35.72;22.98;98176.75;5068450;28;20036;-88
2021/08/03 06:52:55;;;;;;;0.30;0.30;;;;;;;35.94;23.88;98176.88;5069676;28;20049;-90
2021/08/03 06:55:28;;;;;;;0.35;0.30;;;;;;;36.28;22.93;98167.13;5068242;28;20055;-87
2021/08/03 06:57:58;;;;;;;0.30;0.30;;;;;;;36.75;22.90;98165.41;5062763;28;20059;-89
2021/08/03 07:00:25;;;;;;;0.20;0.20;;;;;;;37.05;22.17;98172.19;5072411;28;20484;-89
2021/08/03 07:02:53;;;;;;;0.50;0.22;;;;;;;37.12;22.04;98176.59;5074102;28;20036;-88
2021/08/03 07:05:25;;;;;;;1.50;0.25;;;;;;;36.76;22.16;98177.63;5072653;28;20044;-89
2021/08/03 07:07:57;;;;;;;0.28;0.28;;;;;;;36.53;23.24;98176.81;5066967;28;20030;-91
2021/08/03 07:10:23;;;;;;;0.20;0.20;;;;;;;36.31;22.28;98168.94;5067690;28;20044;-91
2021/08/03 07:12:53;;;;;;;0.30;0.30;;;;;;;36.54;22.73;98178.38;5073493;28;20503;-90
2021/08/03 07:15:20;;;;;;;0.25;0.25;;;;;;;36.22;22.38;98179.84;5072918;28;20040;-88
2021/08/03 07:17:48;;;;;;;0.35;0.35;;;;;;;36.12;23.08;98178.50;5074788;28;20032;-90
2021/08/03 07:20:15;;;;;;;0.95;0.35;;;;;;;36.07;23.08;98185.75;5072424;28;20032;-87
2021/08/03 07:22:42;;;;;;;0.50;0.50;;;;;;;35.95;23.04;98181.28;5074670;28;20085;-89
2021/08/03 07:25:10;;;;;;;0.40;0.40;;;;;;;36.36;23.13;98175.97;5072660;28;20032;-89
2021/08/03 07:27:36;;;;;;;0.30;0.30;;;;;;;36.32;23.44;98176.22;5074115;28;20032;-88
2021/08/03 07:30:04;;;;;;;0.82;0.40;;;;;;;35.39;23.55;98174.47;5068421;28;20473;-85
2021/08/03 07:32:34;;;;;;;0.75;0.32;;;;;;;34.06;25.18;98176.06;5067599;28;20493;-87
2021/08/03 07:35:02;;;;;;;0.70;0.47;;;;;;;34.19;25.54;98172.84;5067854;28;20411;-87
2021/08/03 07:37:30;;;;;;;0.60;0.40;;;;;;;34.35;24.12;98173.03;5079719;28;20047;-87
2021/08/03 07:39:56;;;;;;;0.70;0.50;;;;;;;33.86;24.00;98179.69;5060004;28;20032;-88
2021/08/03 07:42:22;;;;;;;1.52;0.47;;;;;;;34.04;25.10;98173.72;5068210;28;20054;-89
2021/08/03 07:44:48;;;;;;;0.90;0.77;;;;;;;34.84;23.85;98171.97;5072630;28;20032;-88
2021/08/03 07:47:15;;;;;;;0.30;0.30;;;;;;;35.64;23.19;98184.25;5069518;28;20131;-88
2021/08/03 07:49:42;;;;;;;0.50;0.40;;;;;;;33.79;25.28;98170.78;5064587;28;20033;-87
2021/08/03 07:52:08;;;;;;;0.40;0.40;;;;;;;33.84;25.75;98184.31;5072005;28;20024;-87
2021/08/03 07:54:34;;;;;;;0.30;0.30;;;;;;;34.70;24.18;98184.28;5070752;28;20051;-88
2021/08/03 07:57:01;;;;;;;0.30;0.30;;;;;;;35.52;24.20;98185.47;5067073;28;20024;-91
2021/08/03 07:59:27;;;;;;;0.28;0.28;;;;;;;36.14;23.10;98190.19;5070015;28;20499;-87
2021/08/03 08:01:53;;;;;;;0.50;0.35;;;;;;;36.29;21.91;98180.13;5068630;28;20036;-88
2021/08/03 08:04:19;;;;;;;0.40;0.20;;;;;;;36.45;20.97;98182.28;5069038;28;20036;-88
2021/08/03 08:06:45;;;;;;;0.40;0.40;;;;;;;36.44;21.58;98179.88;5067271;28;20111;-89
2021/08/03 08:09:11;;;;;;;0.20;0.20;;;;;;;35.81;22.38;98183.03;5072009;28;20043;-87
2021/08/03 08:11:37;;;;;;;0.47;0.47;;;;;;;35.84;21.95;98184.88;5069046;28;20499;-89
2021/08/03 08:14:04;;;;;;;0.73;0.30;;;;;;;35.61;22.96;98177.50;5071640;28;20049;-87
2021/08/03 08:16:30;;;;;;;0.35;0.35;;;;;;;35.45;23.12;98180.22;5069936;28;20032;-87
2021/08/03 08:18:56;;;;;;;0.30;0.30;;;;;;;35.90;22.67;98182.81;5070677;28;20036;-88
2021/08/03 08:21:22;;;;;;;0.35;0.35;;;;;;;36.29;21.30;98179.34;5069085;28;20044;-87
2021/08/03 08:23:48;;;;;;;0.40;0.40;;;;;;;36.06;21.56;98173.53;5069475;28;20048;-87
2021/08/03 08:26:14;;;;;;;0.68;0.30;;;;;;;35.53;23.60;98179.25;5071062;28;20036;-87
2021/08/03 08:28:40;;;;;;;0.43;0.40;;;;;;;35.57;22.69;98181.88;5069531;28;20028;-88
2021/08/03 08:31:06;;;;;;;0.40;0.40;;;;;;;35.14;22.59;98181.84;5069406;28;20099;-89
2021/08/03 08:33:32;;;;;;;0.30;0.30;;;;;;;36.35;23.24;98177.25;5068925;28;20036;-87
2021/08/03 08:35:58;;;;;;;0.30;0.30;;;;;;;36.73;21.60;98176.59;5068396;28;20028;-88
2021/08/03 08:38:24;;;;;;;0.40;0.30;;;;;;;36.84;21.98;98181.53;5066860;28;20456;-92
2021/08/03 08:40:54;;;;;;;0.85;0.40;;;;;;;36.70;22.59;98169.03;5069993;28;20102;-91
2021/08/03 08:43:20;;;;;;;0.30;0.30;;;;;;;36.93;22.09;98173.50;5064323;28;20105;-93
2021/08/03 08:45:46;;;;;;;0.20;0.20;;;;;;;37.20;21.39;98178.41;5069456;28;20070;-91
2021/08/03 08:48:14;;;;;;;0.20;0.20;;;;;;;37.49;22.01;98179.97;5067450;28;20021;-94
2021/08/03 08:50:41;;;;;;;0.30;0.30;;;;;;;37.39;20.95;98173.72;5065851;28;20028;-93
2021/08/03 08:53:07;;;;;;;0.30;0.30;;;;;;;37.39;22.59;98170.84;5070142;28;20511;-91
2021/08/03 08:55:33;;;;;;;0.13;0.13;;;;;;;37.64;20.69;98171.06;5068906;28;20028;-90
2021/08/03 08:58:00;;;;;;;2.00;0.30;;;;;;;37.82;20.09;98176.22;5067536;28;20504;-92
2021/08/03 09:00:27;;;;;;;0.22;0.20;;;;;;;37.95;20.14;98182.97;5067446;28;20493;-92
2021/08/03 09:02:54;;;;;;;0.15;0.13;;;;;;;37.43;21.49;98169.81;5068814;28;20040;-91
2021/08/03 09:05:39;;;;;;;0.30;0.30;;;;;;;37.12;21.71;98168.78;5064146;28;20381;-91
2021/08/03 09:08:06;;;;;;;0.30;0.20;;;;;;;36.59;22.93;98169.03;5065801;28;20131;-89
2021/08/03 09:10:42;;;;;;;0.30;0.30;;;;;;;36.44;21.84;98163.50;5068676;28;20511;-89
2021/08/03 09:13:14;;;;;;;0.28;0.28;;;;;;;35.24;23.25;98171.75;5069557;28;20062;-84
2021/08/03 09:15:57;;;;;;;0.30;0.30;;;;;;;36.40;22.14;98154.41;5067861;28;20044;-84
2021/08/03 09:18:36;;;;;;;0.10;0.10;;;;;;;37.07;20.39;98158.13;5061575;28;20067;-86
2021/08/03 09:21:03;;;;;;;0.35;0.20;;;;;;;37.24;21.83;98152.38;5070381;28;20028;-83
2021/08/03 09:23:44;;;;;;;0.22;0.20;;;;;;;37.58;21.12;98147.38;5072008;28;20082;-84
2021/08/03 09:26:10;;;;;;;0.25;0.25;;;;;;;37.74;20.46;98152.28;5072857;28;20536;-87
2021/08/03 09:28:55;;;;;;;0.20;0.20;;;;;;;38.07;19.35;98140.66;5071642;28;20069;-85
2021/08/03 09:31:21;;;;;;;0.22;0.20;;;;;;;37.76;19.60;98149.66;5072867;28;20112;-85
2021/08/03 09:33:48;;;;;;;0.10;0.10;;;;;;;37.47;21.23;98144.53;5073045;28;20104;-85
2021/08/03 09:36:14;;;;;;;0.20;0.20;;;;;;;37.97;21.31;98142.31;5072775;28;20420;-87
2021/08/03 09:38:40;;;;;;;0.30;0.30;;;;;;;37.80;20.53;98142.34;5073060;28;20033;-87
2021/08/03 09:41:08;;;;;;;0.43;0.30;;;;;;;36.48;21.43;98143.28;5059640;28;20083;-86
2021/08/03 09:43:34;;;;;;;0.70;0.25;;;;;;;37.42;21.32;98145.31;5053576;28;20040;-85
2021/08/03 09:46:01;;;;;;;0.30;0.30;;;;;;;37.23;21.18;98143.00;5071285;28;20528;-85
2021/08/03 09:48:30;;;;;;;1.45;0.20;;;;;;;37.66;20.28;98136.94;5074895;28;20036;-84
2021/08/03 09:51:01;;;;;;;0.95;0.38;;;;;;;37.87;21.21;98136.09;5070999;28;20028;-86
2021/08/03 09:53:43;;;;;;;0.30;0.30;;;;;;;38.19;20.07;98132.78;5076862;28;20036;-85
2021/08/03 09:56:13;;;;;;;0.30;0.30;;;;;;;38.49;20.57;98131.56;5076464;28;20036;-84
2021/08/03 09:59:00;;;;;;;0.30;0.30;;;;;;;38.45;20.28;98133.16;5075316;28;20024;-83
2021/08/03 10:01:33;;;;;;;0.20;0.20;;;;;;;37.17;21.26;98135.72;5063256;28;20079;-84
2021/08/03 10:04:10;;;;;;;0.30;0.30;;;;;;;37.45;21.62;98133.63;5072767;28;20028;-83
2021/08/03 10:06:38;;;;;;;0.10;0.10;;;;;;;38.37;20.15;98132.19;5073699;28;20029;-83
2021/08/03 10:09:07;;;;;;;0.38;0.30;;;;;;;39.04;20.03;98129.59;5056990;28;20047;-83
2021/08/03 10:11:34;;;;;;;0.30;0.30;;;;;;;38.30;20.55;98124.91;5073601;28;20029;-86
2021/08/03 10:14:00;;;;;;;0.30;0.30;;;;;;;36.83;22.65;98114.91;5074839;28;20040;-85
2021/08/03 10:16:27;;;;;;;0.28;0.28;;;;;;;37.28;22.12;98129.97;5074354;28;20370;-86
2021/08/03 10:18:56;;;;;;;0.20;0.20;;;;;;;37.25;20.49;98128.94;5073008;28;20040;-86
2021/08/03 10:21:35;;;;;;;0.35;0.30;;;;;;;38.07;18.72;98128.44;5072553;28;20124;-86
2021/08/03 10:24:22;;;;;;;0.20;0.20;;;;;;;38.49;19.68;98134.44;5075385;28;20563;-85
2021/08/03 10:27:08;;;;;;;0.20;0.20;;;;;;;38.51;19.35;98131.81;5073772;28;20033;-87
2021/08/03 10:29:39;;;;;;;0.20;0.20;;;;;;;38.14;19.83;98119.28;5073381;28;20032;-86
2021/08/03 10:32:05;;;;;;;0.22;0.22;;;;;;;38.42;19.16;98125.63;5073740;28;20492;-86
2021/08/03 10:34:43;;;;;;;0.20;0.20;;;;;;;38.49;18.88;98125.81;5075116;28;20036;-86
2021/08/03 10:37:10;;;;;;;0.20;0.20;;;;;;;38.51;20.24;98126.06;5067306;28;20041;-86
2021/08/03 10:39:53;;;;;;;0.20;0.20;;;;;;;38.57;20.12;98123.16;5074230;28;20028;-86
2021/08/03 10:42:21;;;;;;;0.10;0.10;;;;;;;38.83;18.64;98111.25;5071891;28;20032;-87
2021/08/03 10:45:00;;;;;;;0.45;0.30;;;;;;;39.41;21.14;98112.50;5070305;28;20044;-87
2021/08/03 10:47:39;;;;;;;0.30;0.20;;;;;;;39.83;18.90;98108.88;5074937;28;20048;-86
2021/08/03 10:50:14;;;;;;;0.17;0.17;;;;;;;39.77;17.89;98104.53;5079491;28;20037;-84
2021/08/03 10:52:48;;;;;;;0.10;0.10;;;;;;;39.88;18.04;98110.91;5074836;28;20035;-88
2021/08/03 10:55:35;;;;;;;0.15;0.15;;;;;;;40.09;18.67;98101.75;5072520;28;20025;-86
2021/08/03 10:58:11;;;;;;;0.10;0.10;;;;;;;40.05;20.00;98109.94;5073256;28;20112;-86
2021/08/03 11:01:01;;;;;;;0.20;0.20;;;;;;;40.26;19.43;98103.06;5067871;28;20039;-85
2021/08/03 11:03:30;;;;;;;;;;;;;;;40.30;17.60;98092.03;5052165;28;20108;-86
2021/08/03 11:05:57;;;;;;;0.20;0.20;;;;;;;40.44;17.77;98093.69;5056041;28;19912;-86
2021/08/03 11:08:31;;;;;;;0.20;0.20;;;;;;;40.14;17.59;98092.28;5068494;28;20032;-86
2021/08/03 11:11:05;;;;;;;0.20;0.20;;;;;;;40.26;19.12;98087.91;5069324;28;20044;-84
2021/08/03 11:13:38;;;;;;;0.20;0.13;;;;;;;40.21;18.71;98080.94;5069221;28;20068;-84
2021/08/03 11:16:10;;;;;;;0.22;0.22;;;;;;;40.26;19.58;98085.78;5071705;28;20108;-85
2021/08/03 11:18:43;;;;;;;0.20;0.20;;;;;;;40.03;19.99;98087.44;5070503;28;20430;-85
2021/08/03 11:21:12;;;;;;;0.10;0.10;;;;;;;40.03;18.68;98088.22;5063426;28;20063;-85
2021/08/03 11:23:55;;;;;;;0.20;0.20;;;;;;;40.06;18.03;98079.84;5056337;28;20124;-84
2021/08/03 11:26:22;;;;;;;0.47;0.22;;;;;;;40.28;18.87;98070.88;5068666;28;20108;-85
2021/08/03 11:29:09;;;;;;;0.20;0.20;;;;;;;39.85;17.93;98068.06;5063838;28;20029;-83
2021/08/03 11:31:47;;;;;;;0.20;0.20;;;;;;;38.89;19.55;98074.63;5057931;28;20075;-90
2021/08/03 11:34:21;;;;;;;0.30;0.30;;;;;;;37.67;21.60;98073.34;5062289;28;20037;-90
2021/08/03 11:36:57;;;;;;;0.20;0.20;;;;;;;37.75;22.05;98067.84;5070679;28;20033;-89
2021/08/03 11:39:25;;;;;;;0.47;0.20;;;;;;;36.82;21.09;98061.06;5062543;28;20395;-90
2021/08/03 11:41:52;;;;;;;0.20;0.20;;;;;;;36.85;21.55;98063.66;5067817;28;20420;-90
2021/08/03 11:44:20;;;;;;;0.10;0.10;;;;;;;36.62;22.37;98064.97;5060216;28;20033;-89
2021/08/03 11:46:54;;;;;;;1.17;0.20;;;;;;;37.47;22.64;98081.50;5064895;28;20055;-88